sensor_id;sensor_type;location;lat;lon;timestamp;P1;durP1;ratioP1;P2;durP2;ratioP2
66012;SDS011;52783;50.502;8.190;2023-11-21T00:00:00;45.20;;;6.65;;
66012;SDS011;52783;50.502;8.190;2023-11-21T00:02:25;35.42;;;5.88;;
66012;SDS011;52783;50.502;8.190;2023-11-21T00:04:52;17.05;;;5.57;;
66012;SDS011;52783;50.502;8.190;2023-11-21T00:07:17;9.02;;;5.28;;
66012;SDS011;52783;50.502;8.190;2023-11-21T00:09:43;10.65;;;4.75;;
66012;SDS011;52783;50.502;8.190;2023-11-21T00:12:08;7.97;;;5.18;;
66012;SDS011;52783;50.502;8.190;2023-11-21T00:14:35;8.18;;;5.07;;
66012;SDS011;52783;50.502;8.190;2023-11-21T00:17:01;11.02;;;5.00;;
66012;SDS011;52783;50.502;8.190;2023-11-21T00:19:27;10.40;;;5.32;;
66012;SDS011;52783;50.502;8.190;2023-11-21T00:21:53;12.70;;;5.18;;
66012;SDS011;52783;50.502;8.190;2023-11-21T00:24:18;14.27;;;5.30;;
66012;SDS011;52783;50.502;8.190;2023-11-21T00:26:44;14.93;;;5.40;;
66012;SDS011;52783;50.502;8.190;2023-11-21T00:29:10;7.88;;;4.97;;
66012;SDS011;52783;50.502;8.190;2023-11-21T00:31:35;11.75;;;5.15;;
66012;SDS011;52783;50.502;8.190;2023-11-21T00:34:04;8.98;;;4.65;;
66012;SDS011;52783;50.502;8.190;2023-11-21T00:36:32;8.83;;;4.90;;
66012;SDS011;52783;50.502;8.190;2023-11-21T00:38:58;8.20;;;3.78;;
66012;SDS011;52783;50.502;8.190;2023-11-21T00:41:24;12.57;;;5.55;;
66012;SDS011;52783;50.502;8.190;2023-11-21T00:43:52;8.65;;;4.28;;
66012;SDS011;52783;50.502;8.190;2023-11-21T00:46:18;10.35;;;4.53;;
66012;SDS011;52783;50.502;8.190;2023-11-21T00:48:44;7.72;;;4.38;;
66012;SDS011;52783;50.502;8.190;2023-11-21T00:51:10;11.18;;;4.43;;
66012;SDS011;52783;50.502;8.190;2023-11-21T00:53:35;9.55;;;4.20;;
66012;SDS011;52783;50.502;8.190;2023-11-21T00:56:01;11.48;;;3.83;;
66012;SDS011;52783;50.502;8.190;2023-11-21T00:58:27;8.57;;;4.07;;
66012;SDS011;52783;50.502;8.190;2023-11-21T01:00:53;12.45;;;3.70;;
66012;SDS011;52783;50.502;8.190;2023-11-21T01:03:19;3.55;;;2.92;;
66012;SDS011;52783;50.502;8.190;2023-11-21T01:05:44;4.05;;;2.50;;
66012;SDS011;52783;50.502;8.190;2023-11-21T01:08:10;4.40;;;2.70;;
66012;SDS011;52783;50.502;8.190;2023-11-21T01:10:36;3.65;;;2.38;;
66012;SDS011;52783;50.502;8.190;2023-11-21T01:13:02;4.65;;;2.40;;
66012;SDS011;52783;50.502;8.190;2023-11-21T01:15:30;3.47;;;2.25;;
66012;SDS011;52783;50.502;8.190;2023-11-21T01:17:55;4.20;;;2.30;;
66012;SDS011;52783;50.502;8.190;2023-11-21T01:20:21;4.75;;;2.10;;
66012;SDS011;52783;50.502;8.190;2023-11-21T01:22:46;2.75;;;1.73;;
66012;SDS011;52783;50.502;8.190;2023-11-21T01:25:14;2.35;;;1.80;;
66012;SDS011;52783;50.502;8.190;2023-11-21T01:27:41;1.85;;;1.70;;
66012;SDS011;52783;50.502;8.190;2023-11-21T01:30:06;2.45;;;1.67;;
66012;SDS011;52783;50.502;8.190;2023-11-21T01:32:34;1.80;;;1.70;;
66012;SDS011;52783;50.502;8.190;2023-11-21T01:34:59;2.38;;;1.45;;
66012;SDS011;52783;50.502;8.190;2023-11-21T01:37:25;3.22;;;1.60;;
66012;SDS011;52783;50.502;8.190;2023-11-21T01:39:52;1.50;;;1.40;;
66012;SDS011;52783;50.502;8.190;2023-11-21T01:42:19;2.97;;;1.02;;
66012;SDS011;52783;50.502;8.190;2023-11-21T01:44:45;4.10;;;1.25;;
66012;SDS011;52783;50.502;8.190;2023-11-21T01:47:11;1.40;;;1.30;;
66012;SDS011;52783;50.502;8.190;2023-11-21T01:49:39;1.90;;;1.30;;
66012;SDS011;52783;50.502;8.190;2023-11-21T01:52:05;1.35;;;1.25;;
66012;SDS011;52783;50.502;8.190;2023-11-21T01:54:31;1.05;;;0.80;;
66012;SDS011;52783;50.502;8.190;2023-11-21T01:56:58;5.07;;;0.90;;
66012;SDS011;52783;50.502;8.190;2023-11-21T01:59:28;3.17;;;0.90;;
66012;SDS011;52783;50.502;8.190;2023-11-21T02:02:03;1.00;;;0.82;;
66012;SDS011;52783;50.502;8.190;2023-11-21T02:04:31;1.05;;;0.88;;
66012;SDS011;52783;50.502;8.190;2023-11-21T02:06:57;0.93;;;0.90;;
66012;SDS011;52783;50.502;8.190;2023-11-21T02:09:26;1.55;;;1.45;;
66012;SDS011;52783;50.502;8.190;2023-11-21T02:11:55;3.53;;;1.85;;
66012;SDS011;52783;50.502;8.190;2023-11-21T02:14:21;1.70;;;1.00;;
66012;SDS011;52783;50.502;8.190;2023-11-21T02:16:47;3.28;;;1.42;;
66012;SDS011;52783;50.502;8.190;2023-11-21T02:19:15;1.42;;;1.10;;
66012;SDS011;52783;50.502;8.190;2023-11-21T02:21:44;1.40;;;1.30;;
66012;SDS011;52783;50.502;8.190;2023-11-21T02:24:11;1.30;;;1.20;;
66012;SDS011;52783;50.502;8.190;2023-11-21T02:26:36;2.55;;;1.35;;
66012;SDS011;52783;50.502;8.190;2023-11-21T02:29:02;1.00;;;0.98;;
66012;SDS011;52783;50.502;8.190;2023-11-21T02:31:29;2.15;;;1.33;;
66012;SDS011;52783;50.502;8.190;2023-11-21T02:33:55;2.72;;;1.27;;
66012;SDS011;52783;50.502;8.190;2023-11-21T02:36:20;1.17;;;1.02;;
66012;SDS011;52783;50.502;8.190;2023-11-21T02:38:46;1.73;;;1.20;;
66012;SDS011;52783;50.502;8.190;2023-11-21T02:41:12;3.22;;;1.40;;
66012;SDS011;52783;50.502;8.190;2023-11-21T02:43:38;1.30;;;1.20;;
66012;SDS011;52783;50.502;8.190;2023-11-21T02:46:04;1.65;;;1.25;;
66012;SDS011;52783;50.502;8.190;2023-11-21T02:48:29;1.20;;;1.20;;
66012;SDS011;52783;50.502;8.190;2023-11-21T02:50:55;1.45;;;1.35;;
66012;SDS011;52783;50.502;8.190;2023-11-21T02:53:21;1.70;;;1.60;;
66012;SDS011;52783;50.502;8.190;2023-11-21T02:55:46;6.35;;;1.40;;
66012;SDS011;52783;50.502;8.190;2023-11-21T02:58:12;3.55;;;1.50;;
66012;SDS011;52783;50.502;8.190;2023-11-21T03:00:38;1.33;;;1.33;;
66012;SDS011;52783;50.502;8.190;2023-11-21T03:03:06;1.98;;;1.60;;
66012;SDS011;52783;50.502;8.190;2023-11-21T03:05:32;2.08;;;1.23;;
66012;SDS011;52783;50.502;8.190;2023-11-21T03:08:00;1.10;;;1.10;;
66012;SDS011;52783;50.502;8.190;2023-11-21T03:10:26;1.80;;;1.48;;
66012;SDS011;52783;50.502;8.190;2023-11-21T03:12:52;2.00;;;1.75;;
66012;SDS011;52783;50.502;8.190;2023-11-21T03:15:17;1.80;;;1.60;;
66012;SDS011;52783;50.502;8.190;2023-11-21T03:17:43;2.13;;;1.70;;
66012;SDS011;52783;50.502;8.190;2023-11-21T03:20:09;1.70;;;1.60;;
66012;SDS011;52783;50.502;8.190;2023-11-21T03:22:36;2.72;;;1.55;;
66012;SDS011;52783;50.502;8.190;2023-11-21T03:25:02;1.67;;;1.58;;
66012;SDS011;52783;50.502;8.190;2023-11-21T03:27:29;1.73;;;1.63;;
66012;SDS011;52783;50.502;8.190;2023-11-21T03:29:55;4.82;;;1.70;;
66012;SDS011;52783;50.502;8.190;2023-11-21T03:32:20;1.52;;;1.42;;
66012;SDS011;52783;50.502;8.190;2023-11-21T03:34:52;2.78;;;1.60;;
66012;SDS011;52783;50.502;8.190;2023-11-21T03:37:23;1.55;;;1.45;;
66012;SDS011;52783;50.502;8.190;2023-11-21T03:39:49;2.40;;;1.60;;
66012;SDS011;52783;50.502;8.190;2023-11-21T03:42:15;1.42;;;1.33;;
66012;SDS011;52783;50.502;8.190;2023-11-21T03:44:41;3.90;;;1.70;;
66012;SDS011;52783;50.502;8.190;2023-11-21T03:47:06;2.13;;;1.67;;
66012;SDS011;52783;50.502;8.190;2023-11-21T03:49:32;3.45;;;1.67;;
66012;SDS011;52783;50.502;8.190;2023-11-21T03:51:58;4.45;;;1.73;;
66012;SDS011;52783;50.502;8.190;2023-11-21T03:54:24;2.53;;;1.60;;
66012;SDS011;52783;50.502;8.190;2023-11-21T03:56:49;2.25;;;1.70;;
66012;SDS011;52783;50.502;8.190;2023-11-21T03:59:15;3.55;;;1.73;;
66012;SDS011;52783;50.502;8.190;2023-11-21T04:01:40;5.72;;;2.25;;
66012;SDS011;52783;50.502;8.190;2023-11-21T04:04:06;2.53;;;1.70;;
66012;SDS011;52783;50.502;8.190;2023-11-21T04:06:31;3.10;;;1.85;;
66012;SDS011;52783;50.502;8.190;2023-11-21T04:08:58;2.20;;;2.00;;
66012;SDS011;52783;50.502;8.190;2023-11-21T04:11:23;3.00;;;2.28;;
66012;SDS011;52783;50.502;8.190;2023-11-21T04:13:49;4.75;;;2.45;;
66012;SDS011;52783;50.502;8.190;2023-11-21T04:16:15;4.60;;;2.45;;
66012;SDS011;52783;50.502;8.190;2023-11-21T04:18:40;3.47;;;2.80;;
66012;SDS011;52783;50.502;8.190;2023-11-21T04:21:06;7.97;;;2.90;;
66012;SDS011;52783;50.502;8.190;2023-11-21T04:23:32;8.77;;;3.20;;
66012;SDS011;52783;50.502;8.190;2023-11-21T04:25:58;7.28;;;2.60;;
66012;SDS011;52783;50.502;8.190;2023-11-21T04:28:24;4.05;;;2.63;;
66012;SDS011;52783;50.502;8.190;2023-11-21T04:30:50;7.18;;;2.50;;
66012;SDS011;52783;50.502;8.190;2023-11-21T04:33:15;8.90;;;2.83;;
66012;SDS011;52783;50.502;8.190;2023-11-21T04:35:41;6.57;;;3.65;;
66012;SDS011;52783;50.502;8.190;2023-11-21T04:38:07;12.75;;;5.68;;
66012;SDS011;52783;50.502;8.190;2023-11-21T04:40:32;14.48;;;8.00;;
66012;SDS011;52783;50.502;8.190;2023-11-21T04:42:58;9.48;;;5.00;;
66012;SDS011;52783;50.502;8.190;2023-11-21T04:45:24;6.00;;;3.20;;
66012;SDS011;52783;50.502;8.190;2023-11-21T04:47:49;8.98;;;4.60;;
66012;SDS011;52783;50.502;8.190;2023-11-21T04:50:15;14.15;;;5.88;;
66012;SDS011;52783;50.502;8.190;2023-11-21T04:52:40;6.03;;;3.80;;
66012;SDS011;52783;50.502;8.190;2023-11-21T04:55:06;14.05;;;6.35;;
66012;SDS011;52783;50.502;8.190;2023-11-21T04:57:35;7.13;;;3.78;;
66012;SDS011;52783;50.502;8.190;2023-11-21T05:00:01;8.32;;;3.47;;
66012;SDS011;52783;50.502;8.190;2023-11-21T05:02:26;5.47;;;3.25;;
66012;SDS011;52783;50.502;8.190;2023-11-21T05:04:52;13.00;;;3.78;;
66012;SDS011;52783;50.502;8.190;2023-11-21T05:07:18;8.88;;;2.90;;
66012;SDS011;52783;50.502;8.190;2023-11-21T05:09:43;5.82;;;2.80;;
66012;SDS011;52783;50.502;8.190;2023-11-21T05:12:10;8.95;;;2.92;;
66012;SDS011;52783;50.502;8.190;2023-11-21T05:14:39;13.48;;;3.70;;
66012;SDS011;52783;50.502;8.190;2023-11-21T05:17:05;7.05;;;3.85;;
66012;SDS011;52783;50.502;8.190;2023-11-21T05:19:30;8.32;;;3.45;;
66012;SDS011;52783;50.502;8.190;2023-11-21T05:21:57;5.55;;;2.80;;
66012;SDS011;52783;50.502;8.190;2023-11-21T05:24:25;15.35;;;3.47;;
66012;SDS011;52783;50.502;8.190;2023-11-21T05:26:51;5.90;;;3.47;;
66012;SDS011;52783;50.502;8.190;2023-11-21T05:29:17;3.88;;;3.00;;
66012;SDS011;52783;50.502;8.190;2023-11-21T05:31:43;5.82;;;2.90;;
66012;SDS011;52783;50.502;8.190;2023-11-21T05:34:08;3.20;;;2.70;;
66012;SDS011;52783;50.502;8.190;2023-11-21T05:36:34;4.95;;;2.80;;
66012;SDS011;52783;50.502;8.190;2023-11-21T05:39:00;3.45;;;2.70;;
66012;SDS011;52783;50.502;8.190;2023-11-21T05:41:25;5.75;;;2.90;;
66012;SDS011;52783;50.502;8.190;2023-11-21T05:43:51;3.67;;;2.75;;
66012;SDS011;52783;50.502;8.190;2023-11-21T05:46:16;7.45;;;3.60;;
66012;SDS011;52783;50.502;8.190;2023-11-21T05:48:42;6.63;;;3.90;;
66012;SDS011;52783;50.502;8.190;2023-11-21T05:51:07;6.43;;;3.45;;
66012;SDS011;52783;50.502;8.190;2023-11-21T05:53:33;3.97;;;2.97;;
66012;SDS011;52783;50.502;8.190;2023-11-21T05:55:59;13.07;;;2.78;;
66012;SDS011;52783;50.502;8.190;2023-11-21T05:58:25;4.78;;;2.40;;
66012;SDS011;52783;50.502;8.190;2023-11-21T06:00:50;6.50;;;2.33;;
66012;SDS011;52783;50.502;8.190;2023-11-21T06:03:16;3.50;;;2.38;;
66012;SDS011;52783;50.502;8.190;2023-11-21T06:05:42;4.70;;;2.50;;
66012;SDS011;52783;50.502;8.190;2023-11-21T06:08:08;4.35;;;2.60;;
66012;SDS011;52783;50.502;8.190;2023-11-21T06:10:34;7.38;;;2.67;;
66012;SDS011;52783;50.502;8.190;2023-11-21T06:12:59;4.28;;;2.60;;
66012;SDS011;52783;50.502;8.190;2023-11-21T06:15:25;7.50;;;2.42;;
66012;SDS011;52783;50.502;8.190;2023-11-21T06:17:51;5.47;;;2.38;;
66012;SDS011;52783;50.502;8.190;2023-11-21T06:22:48;5.57;;;2.58;;
66012;SDS011;52783;50.502;8.190;2023-11-21T06:25:15;5.75;;;2.40;;
66012;SDS011;52783;50.502;8.190;2023-11-21T06:27:44;2.63;;;2.17;;
66012;SDS011;52783;50.502;8.190;2023-11-21T06:30:11;4.32;;;2.30;;
66012;SDS011;52783;50.502;8.190;2023-11-21T06:32:38;6.75;;;2.25;;
66012;SDS011;52783;50.502;8.190;2023-11-21T06:37:36;9.20;;;2.33;;
66012;SDS011;52783;50.502;8.190;2023-11-21T06:40:02;4.00;;;1.80;;
66012;SDS011;52783;50.502;8.190;2023-11-21T06:42:31;6.57;;;2.38;;
66012;SDS011;52783;50.502;8.190;2023-11-21T06:44:58;5.63;;;2.20;;
66012;SDS011;52783;50.502;8.190;2023-11-21T06:47:24;10.52;;;2.50;;
66012;SDS011;52783;50.502;8.190;2023-11-21T06:49:51;8.88;;;2.95;;
66012;SDS011;52783;50.502;8.190;2023-11-21T06:52:17;3.30;;;2.08;;
66012;SDS011;52783;50.502;8.190;2023-11-21T06:54:43;7.78;;;2.38;;
66012;SDS011;52783;50.502;8.190;2023-11-21T06:57:10;3.60;;;2.03;;
66012;SDS011;52783;50.502;8.190;2023-11-21T06:59:35;2.72;;;2.10;;
66012;SDS011;52783;50.502;8.190;2023-11-21T07:02:01;6.20;;;2.30;;
66012;SDS011;52783;50.502;8.190;2023-11-21T07:04:27;3.65;;;2.10;;
66012;SDS011;52783;50.502;8.190;2023-11-21T07:06:53;3.35;;;2.10;;
66012;SDS011;52783;50.502;8.190;2023-11-21T07:09:19;4.55;;;2.20;;
66012;SDS011;52783;50.502;8.190;2023-11-21T07:11:47;5.28;;;2.42;;
66012;SDS011;52783;50.502;8.190;2023-11-21T07:14:13;5.47;;;2.63;;
66012;SDS011;52783;50.502;8.190;2023-11-21T07:16:39;4.60;;;2.15;;
66012;SDS011;52783;50.502;8.190;2023-11-21T07:19:05;7.07;;;2.30;;
66012;SDS011;52783;50.502;8.190;2023-11-21T07:21:32;7.03;;;2.65;;
66012;SDS011;52783;50.502;8.190;2023-11-21T07:23:58;4.43;;;2.60;;
66012;SDS011;52783;50.502;8.190;2023-11-21T07:26:28;5.20;;;2.35;;
66012;SDS011;52783;50.502;8.190;2023-11-21T07:28:53;4.93;;;2.22;;
66012;SDS011;52783;50.502;8.190;2023-11-21T07:31:19;12.85;;;2.80;;
66012;SDS011;52783;50.502;8.190;2023-11-21T07:33:45;7.05;;;2.90;;
66012;SDS011;52783;50.502;8.190;2023-11-21T07:36:12;7.25;;;2.90;;
66012;SDS011;52783;50.502;8.190;2023-11-21T07:38:43;5.07;;;2.50;;
66012;SDS011;52783;50.502;8.190;2023-11-21T07:41:08;9.93;;;2.45;;
66012;SDS011;52783;50.502;8.190;2023-11-21T07:43:35;5.53;;;2.20;;
66012;SDS011;52783;50.502;8.190;2023-11-21T07:46:01;5.40;;;2.10;;
66012;SDS011;52783;50.502;8.190;2023-11-21T07:48:30;4.63;;;2.47;;
66012;SDS011;52783;50.502;8.190;2023-11-21T07:50:56;8.80;;;2.60;;
66012;SDS011;52783;50.502;8.190;2023-11-21T07:53:23;5.95;;;2.85;;
66012;SDS011;52783;50.502;8.190;2023-11-21T07:55:54;8.38;;;3.20;;
66012;SDS011;52783;50.502;8.190;2023-11-21T07:58:20;8.90;;;2.65;;
66012;SDS011;52783;50.502;8.190;2023-11-21T08:00:45;3.88;;;2.70;;
66012;SDS011;52783;50.502;8.190;2023-11-21T08:03:13;4.22;;;2.50;;
66012;SDS011;52783;50.502;8.190;2023-11-21T08:05:38;4.18;;;2.72;;
66012;SDS011;52783;50.502;8.190;2023-11-21T08:08:05;7.63;;;2.80;;
66012;SDS011;52783;50.502;8.190;2023-11-21T08:10:31;5.30;;;2.60;;
66012;SDS011;52783;50.502;8.190;2023-11-21T08:12:56;8.20;;;3.05;;
66012;SDS011;52783;50.502;8.190;2023-11-21T08:15:22;6.55;;;2.80;;
66012;SDS011;52783;50.502;8.190;2023-11-21T08:17:47;7.82;;;2.63;;
66012;SDS011;52783;50.502;8.190;2023-11-21T08:20:13;6.72;;;2.83;;
66012;SDS011;52783;50.502;8.190;2023-11-21T08:22:41;17.02;;;7.30;;
66012;SDS011;52783;50.502;8.190;2023-11-21T08:25:07;7.85;;;3.45;;
66012;SDS011;52783;50.502;8.190;2023-11-21T08:27:33;4.72;;;2.70;;
66012;SDS011;52783;50.502;8.190;2023-11-21T08:29:59;9.32;;;5.40;;
66012;SDS011;52783;50.502;8.190;2023-11-21T08:32:25;8.40;;;4.25;;
66012;SDS011;52783;50.502;8.190;2023-11-21T08:34:51;10.07;;;5.93;;
66012;SDS011;52783;50.502;8.190;2023-11-21T08:37:16;19.20;;;7.60;;
66012;SDS011;52783;50.502;8.190;2023-11-21T08:39:46;10.73;;;5.22;;
66012;SDS011;52783;50.502;8.190;2023-11-21T08:42:13;11.35;;;5.03;;
66012;SDS011;52783;50.502;8.190;2023-11-21T08:44:39;11.13;;;6.20;;
66012;SDS011;52783;50.502;8.190;2023-11-21T08:47:05;10.85;;;5.68;;
66012;SDS011;52783;50.502;8.190;2023-11-21T08:49:30;13.07;;;5.07;;
66012;SDS011;52783;50.502;8.190;2023-11-21T08:51:56;8.55;;;5.05;;
66012;SDS011;52783;50.502;8.190;2023-11-21T08:54:24;7.90;;;3.92;;
66012;SDS011;52783;50.502;8.190;2023-11-21T08:56:50;13.48;;;4.15;;
66012;SDS011;52783;50.502;8.190;2023-11-21T08:59:16;9.27;;;3.85;;
66012;SDS011;52783;50.502;8.190;2023-11-21T09:01:42;8.13;;;3.72;;
66012;SDS011;52783;50.502;8.190;2023-11-21T09:04:07;6.90;;;3.45;;
66012;SDS011;52783;50.502;8.190;2023-11-21T09:06:33;7.25;;;3.85;;
66012;SDS011;52783;50.502;8.190;2023-11-21T09:08:58;7.10;;;3.80;;
66012;SDS011;52783;50.502;8.190;2023-11-21T09:11:24;7.35;;;3.28;;
66012;SDS011;52783;50.502;8.190;2023-11-21T09:13:52;10.15;;;3.35;;
66012;SDS011;52783;50.502;8.190;2023-11-21T09:16:17;13.88;;;4.10;;
66012;SDS011;52783;50.502;8.190;2023-11-21T09:18:44;6.80;;;3.00;;
66012;SDS011;52783;50.502;8.190;2023-11-21T09:21:10;8.55;;;3.33;;
66012;SDS011;52783;50.502;8.190;2023-11-21T09:23:35;6.22;;;3.03;;
66012;SDS011;52783;50.502;8.190;2023-11-21T09:26:01;8.85;;;3.10;;
66012;SDS011;52783;50.502;8.190;2023-11-21T09:28:27;4.47;;;3.40;;
66012;SDS011;52783;50.502;8.190;2023-11-21T09:30:53;7.45;;;3.83;;
66012;SDS011;52783;50.502;8.190;2023-11-21T09:33:18;10.30;;;5.00;;
66012;SDS011;52783;50.502;8.190;2023-11-21T09:35:45;11.60;;;5.82;;
66012;SDS011;52783;50.502;8.190;2023-11-21T09:38:11;21.02;;;9.40;;
66012;SDS011;52783;50.502;8.190;2023-11-21T09:40:37;25.48;;;11.88;;
66012;SDS011;52783;50.502;8.190;2023-11-21T09:43:06;10.55;;;5.75;;
66012;SDS011;52783;50.502;8.190;2023-11-21T09:45:43;5.13;;;3.22;;
66012;SDS011;52783;50.502;8.190;2023-11-21T09:48:16;6.07;;;3.10;;
66012;SDS011;52783;50.502;8.190;2023-11-21T09:50:42;12.52;;;3.47;;
66012;SDS011;52783;50.502;8.190;2023-11-21T09:53:18;13.05;;;3.90;;
66012;SDS011;52783;50.502;8.190;2023-11-21T09:55:50;7.23;;;3.80;;
66012;SDS011;52783;50.502;8.190;2023-11-21T09:58:18;4.70;;;3.80;;
66012;SDS011;52783;50.502;8.190;2023-11-21T10:00:45;11.98;;;3.42;;
66012;SDS011;52783;50.502;8.190;2023-11-21T10:03:12;7.50;;;3.90;;
66012;SDS011;52783;50.502;8.190;2023-11-21T10:05:38;10.05;;;5.80;;
66012;SDS011;52783;50.502;8.190;2023-11-21T10:08:06;12.93;;;3.83;;
66012;SDS011;52783;50.502;8.190;2023-11-21T10:10:34;6.18;;;3.95;;
66012;SDS011;52783;50.502;8.190;2023-11-21T10:13:02;7.90;;;3.80;;
66012;SDS011;52783;50.502;8.190;2023-11-21T10:15:33;7.38;;;4.70;;
66012;SDS011;52783;50.502;8.190;2023-11-21T10:18:00;7.63;;;4.80;;
66012;SDS011;52783;50.502;8.190;2023-11-21T10:20:31;9.65;;;4.28;;
66012;SDS011;52783;50.502;8.190;2023-11-21T10:23:03;11.20;;;4.50;;
66012;SDS011;52783;50.502;8.190;2023-11-21T10:25:29;8.23;;;4.20;;
66012;SDS011;52783;50.502;8.190;2023-11-21T10:27:59;10.88;;;4.50;;
66012;SDS011;52783;50.502;8.190;2023-11-21T10:30:33;10.05;;;4.63;;
66012;SDS011;52783;50.502;8.190;2023-11-21T10:33:02;9.25;;;4.75;;
66012;SDS011;52783;50.502;8.190;2023-11-21T10:38:15;10.25;;;5.07;;
66012;SDS011;52783;50.502;8.190;2023-11-21T10:40:42;11.43;;;5.28;;
66012;SDS011;52783;50.502;8.190;2023-11-21T10:43:09;8.02;;;5.20;;
66012;SDS011;52783;50.502;8.190;2023-11-21T10:45:36;8.82;;;6.57;;
66012;SDS011;52783;50.502;8.190;2023-11-21T10:48:04;12.13;;;7.35;;
66012;SDS011;52783;50.502;8.190;2023-11-21T10:50:43;12.85;;;7.72;;
66012;SDS011;52783;50.502;8.190;2023-11-21T10:53:10;13.30;;;6.78;;
66012;SDS011;52783;50.502;8.190;2023-11-21T10:55:39;16.30;;;6.18;;
66012;SDS011;52783;50.502;8.190;2023-11-21T10:58:05;10.32;;;6.22;;
66012;SDS011;52783;50.502;8.190;2023-11-21T11:00:31;12.35;;;6.88;;
66012;SDS011;52783;50.502;8.190;2023-11-21T11:02:58;13.52;;;7.00;;
66012;SDS011;52783;50.502;8.190;2023-11-21T11:05:26;15.98;;;6.45;;
66012;SDS011;52783;50.502;8.190;2023-11-21T11:07:56;11.07;;;6.13;;
66012;SDS011;52783;50.502;8.190;2023-11-21T11:10:33;13.25;;;6.68;;
66012;SDS011;52783;50.502;8.190;2023-11-21T11:12:59;11.95;;;6.80;;
66012;SDS011;52783;50.502;8.190;2023-11-21T11:15:26;13.73;;;6.45;;
66012;SDS011;52783;50.502;8.190;2023-11-21T11:17:52;14.18;;;6.68;;
66012;SDS011;52783;50.502;8.190;2023-11-21T11:20:22;12.32;;;6.47;;
66012;SDS011;52783;50.502;8.190;2023-11-21T11:25:44;13.95;;;6.55;;
66012;SDS011;52783;50.502;8.190;2023-11-21T11:28:27;11.93;;;7.30;;
66012;SDS011;52783;50.502;8.190;2023-11-21T11:31:04;10.93;;;6.68;;
66012;SDS011;52783;50.502;8.190;2023-11-21T11:33:43;11.32;;;6.10;;
66012;SDS011;52783;50.502;8.190;2023-11-21T11:39:26;14.20;;;7.22;;
66012;SDS011;52783;50.502;8.190;2023-11-21T11:42:01;10.73;;;6.22;;
66012;SDS011;52783;50.502;8.190;2023-11-21T11:47:15;11.13;;;5.95;;
66012;SDS011;52783;50.502;8.190;2023-11-21T11:52:43;13.13;;;6.18;;
66012;SDS011;52783;50.502;8.190;2023-11-21T11:55:11;7.78;;;5.10;;
66012;SDS011;52783;50.502;8.190;2023-11-21T11:57:39;12.52;;;4.90;;
66012;SDS011;52783;50.502;8.190;2023-11-21T12:00:12;12.60;;;5.03;;
66012;SDS011;52783;50.502;8.190;2023-11-21T12:02:47;6.47;;;4.13;;
66012;SDS011;52783;50.502;8.190;2023-11-21T12:05:14;12.07;;;5.50;;
66012;SDS011;52783;50.502;8.190;2023-11-21T12:07:48;9.52;;;4.13;;
66012;SDS011;52783;50.502;8.190;2023-11-21T12:10:15;8.23;;;4.45;;
66012;SDS011;52783;50.502;8.190;2023-11-21T12:12:45;9.80;;;4.03;;
66012;SDS011;52783;50.502;8.190;2023-11-21T12:17:44;5.13;;;3.58;;
66012;SDS011;52783;50.502;8.190;2023-11-21T12:20:10;14.00;;;3.38;;
66012;SDS011;52783;50.502;8.190;2023-11-21T12:22:43;7.43;;;3.60;;
66012;SDS011;52783;50.502;8.190;2023-11-21T12:25:09;8.60;;;3.78;;
66012;SDS011;52783;50.502;8.190;2023-11-21T12:27:35;8.75;;;3.45;;
66012;SDS011;52783;50.502;8.190;2023-11-21T12:30:00;5.15;;;3.15;;
66012;SDS011;52783;50.502;8.190;2023-11-21T12:32:26;6.60;;;3.45;;
66012;SDS011;52783;50.502;8.190;2023-11-21T12:34:51;7.60;;;3.92;;
66012;SDS011;52783;50.502;8.190;2023-11-21T12:37:17;5.28;;;3.20;;
66012;SDS011;52783;50.502;8.190;2023-11-21T12:39:43;13.45;;;3.60;;
66012;SDS011;52783;50.502;8.190;2023-11-21T12:42:09;7.20;;;3.65;;
66012;SDS011;52783;50.502;8.190;2023-11-21T12:44:35;8.77;;;3.58;;
66012;SDS011;52783;50.502;8.190;2023-11-21T12:47:02;6.68;;;3.20;;
66012;SDS011;52783;50.502;8.190;2023-11-21T12:49:28;6.03;;;3.10;;
66012;SDS011;52783;50.502;8.190;2023-11-21T12:51:54;5.53;;;3.25;;
66012;SDS011;52783;50.502;8.190;2023-11-21T12:54:19;5.28;;;3.10;;
66012;SDS011;52783;50.502;8.190;2023-11-21T12:56:45;6.40;;;2.33;;
66012;SDS011;52783;50.502;8.190;2023-11-21T12:59:14;7.45;;;2.90;;
66012;SDS011;52783;50.502;8.190;2023-11-21T13:01:42;7.32;;;3.10;;
66012;SDS011;52783;50.502;8.190;2023-11-21T13:04:08;5.53;;;3.10;;
66012;SDS011;52783;50.502;8.190;2023-11-21T13:06:36;3.88;;;2.75;;
66012;SDS011;52783;50.502;8.190;2023-11-21T13:09:06;6.50;;;2.75;;
66012;SDS011;52783;50.502;8.190;2023-11-21T13:11:42;6.63;;;2.55;;
66012;SDS011;52783;50.502;8.190;2023-11-21T13:14:10;4.82;;;3.00;;
66012;SDS011;52783;50.502;8.190;2023-11-21T13:16:36;9.98;;;4.47;;
66012;SDS011;52783;50.502;8.190;2023-11-21T13:19:03;9.30;;;3.63;;
66012;SDS011;52783;50.502;8.190;2023-11-21T13:21:28;6.93;;;3.25;;
66012;SDS011;52783;50.502;8.190;2023-11-21T13:23:54;11.70;;;3.70;;
66012;SDS011;52783;50.502;8.190;2023-11-21T13:26:20;10.65;;;3.75;;
66012;SDS011;52783;50.502;8.190;2023-11-21T13:28:48;7.50;;;3.22;;
66012;SDS011;52783;50.502;8.190;2023-11-21T13:31:14;5.15;;;3.20;;
66012;SDS011;52783;50.502;8.190;2023-11-21T13:33:52;6.53;;;3.50;;
66012;SDS011;52783;50.502;8.190;2023-11-21T13:36:22;6.85;;;4.25;;
66012;SDS011;52783;50.502;8.190;2023-11-21T13:38:51;11.38;;;5.13;;
66012;SDS011;52783;50.502;8.190;2023-11-21T13:41:19;9.25;;;3.53;;
66012;SDS011;52783;50.502;8.190;2023-11-21T13:43:47;6.60;;;3.20;;
66012;SDS011;52783;50.502;8.190;2023-11-21T13:46:22;21.38;;;11.52;;
66012;SDS011;52783;50.502;8.190;2023-11-21T13:48:48;14.85;;;7.70;;
66012;SDS011;52783;50.502;8.190;2023-11-21T13:51:21;15.77;;;8.32;;
66012;SDS011;52783;50.502;8.190;2023-11-21T13:54:02;14.57;;;7.43;;
66012;SDS011;52783;50.502;8.190;2023-11-21T13:56:33;15.02;;;7.07;;
66012;SDS011;52783;50.502;8.190;2023-11-21T13:58:59;31.35;;;15.77;;
66012;SDS011;52783;50.502;8.190;2023-11-21T14:01:33;16.40;;;7.30;;
66012;SDS011;52783;50.502;8.190;2023-11-21T14:04:18;13.55;;;4.97;;
66012;SDS011;52783;50.502;8.190;2023-11-21T14:06:44;11.73;;;5.65;;
66012;SDS011;52783;50.502;8.190;2023-11-21T14:09:14;13.63;;;6.55;;
66012;SDS011;52783;50.502;8.190;2023-11-21T14:11:50;12.32;;;7.18;;
66012;SDS011;52783;50.502;8.190;2023-11-21T14:14:17;13.13;;;6.13;;
66012;SDS011;52783;50.502;8.190;2023-11-21T14:16:44;12.35;;;6.35;;
66012;SDS011;52783;50.502;8.190;2023-11-21T14:19:10;17.23;;;7.05;;
66012;SDS011;52783;50.502;8.190;2023-11-21T14:21:41;9.20;;;5.35;;
66012;SDS011;52783;50.502;8.190;2023-11-21T14:24:13;8.27;;;5.28;;
66012;SDS011;52783;50.502;8.190;2023-11-21T14:26:42;9.13;;;5.05;;
66012;SDS011;52783;50.502;8.190;2023-11-21T14:29:10;9.07;;;4.90;;
66012;SDS011;52783;50.502;8.190;2023-11-21T14:31:39;12.55;;;5.78;;
66012;SDS011;52783;50.502;8.190;2023-11-21T14:34:05;13.38;;;5.97;;
66012;SDS011;52783;50.502;8.190;2023-11-21T14:36:32;12.55;;;6.45;;
66012;SDS011;52783;50.502;8.190;2023-11-21T14:38:58;12.35;;;7.85;;
66012;SDS011;52783;50.502;8.190;2023-11-21T14:41:23;16.35;;;7.00;;
66012;SDS011;52783;50.502;8.190;2023-11-21T14:43:50;16.90;;;7.45;;
66012;SDS011;52783;50.502;8.190;2023-11-21T14:46:16;13.85;;;6.45;;
66012;SDS011;52783;50.502;8.190;2023-11-21T14:48:44;13.88;;;6.10;;
66012;SDS011;52783;50.502;8.190;2023-11-21T14:51:23;24.40;;;10.63;;
66012;SDS011;52783;50.502;8.190;2023-11-21T14:53:48;14.05;;;7.40;;
66012;SDS011;52783;50.502;8.190;2023-11-21T14:56:22;17.90;;;7.63;;
66012;SDS011;52783;50.502;8.190;2023-11-21T14:58:52;13.80;;;6.35;;
66012;SDS011;52783;50.502;8.190;2023-11-21T15:01:19;14.90;;;6.97;;
66012;SDS011;52783;50.502;8.190;2023-11-21T15:03:55;23.02;;;7.57;;